createdAt,value
2018-06-23T00:01:44.708Z,98.50
2018-06-23T00:04:12.224Z,98.70
2018-06-23T00:06:39.798Z,98.70
2018-06-23T00:09:07.353Z,98.80
2018-06-23T00:11:34.867Z,99.10
2018-06-23T00:14:03.168Z,99.00
2018-06-23T00:16:30.721Z,99.00
2018-06-23T00:18:58.245Z,99.20
2018-06-23T00:21:26.559Z,99.10
2018-06-23T00:23:54.078Z,99.00
2018-06-23T00:26:21.628Z,99.10
2018-06-23T00:28:49.156Z,99.30
2018-06-23T00:31:16.708Z,99.40
2018-06-23T00:33:44.237Z,99.50
2018-06-23T00:36:13.504Z,99.90
2018-06-23T00:38:41.060Z,99.90
2018-06-23T00:41:08.589Z,99.90
2018-06-23T00:43:36.118Z,99.90
2018-06-23T00:46:05.645Z,99.90
2018-06-23T00:48:33.172Z,99.80
2018-06-23T00:51:01.488Z,99.80
2018-06-23T00:53:30.988Z,99.80
2018-06-23T00:55:58.532Z,99.90
2018-06-23T00:58:26.085Z,99.90
2018-06-23T01:00:53.634Z,99.90
2018-06-23T01:03:21.948Z,99.90
2018-06-23T01:05:49.482Z,99.90
2018-06-23T01:08:16.999Z,99.90
2018-06-23T01:10:46.052Z,99.90
2018-06-23T01:13:13.572Z,99.90
2018-06-23T01:15:41.903Z,99.90
2018-06-23T01:18:09.467Z,99.90
2018-06-23T01:20:37.016Z,99.90
2018-06-23T01:23:05.512Z,99.90
2018-06-23T01:25:33.072Z,99.90
2018-06-23T01:28:00.768Z,99.90
2018-06-23T01:30:28.316Z,99.90
2018-06-23T01:32:55.870Z,99.90
2018-06-23T01:35:23.444Z,99.90
2018-06-23T01:37:50.969Z,99.90
2018-06-23T01:40:18.516Z,99.90
2018-06-23T01:42:46.072Z,99.90
2018-06-23T01:45:14.567Z,99.90
2018-06-23T01:47:42.122Z,99.90
2018-06-23T01:50:09.685Z,99.90
2018-06-23T01:52:37.217Z,99.90
2018-06-23T01:55:04.788Z,99.90
2018-06-23T01:57:32.349Z,99.90
2018-06-23T01:59:59.892Z,99.90
2018-06-23T02:02:27.408Z,99.90
2018-06-23T02:04:55.732Z,99.90
2018-06-23T02:07:23.248Z,99.90
2018-06-23T02:09:50.795Z,99.90
2018-06-23T02:12:18.316Z,99.90
2018-06-23T02:14:45.837Z,99.90
2018-06-23T02:17:19.015Z,99.90
2018-06-23T02:23:01.434Z,99.90
2018-06-23T02:28:38.921Z,99.90
2018-06-23T02:31:06.468Z,99.90
2018-06-23T02:33:33.991Z,99.90
2018-06-23T02:36:01.539Z,99.90
2018-06-23T02:38:31.040Z,99.90
2018-06-23T02:40:59.317Z,99.90
2018-06-23T02:43:27.626Z,99.90
2018-06-23T02:45:55.175Z,99.90
2018-06-23T02:48:22.697Z,99.90
2018-06-23T02:50:50.250Z,99.90
2018-06-23T02:53:19.741Z,99.90
2018-06-23T02:55:47.264Z,99.90
2018-06-23T02:58:14.813Z,99.90
2018-06-23T03:00:42.338Z,99.90
2018-06-23T03:03:09.884Z,99.90
2018-06-23T03:05:38.400Z,99.90
2018-06-23T03:08:05.935Z,99.90
2018-06-23T03:10:33.490Z,99.90
2018-06-23T03:13:01.033Z,99.90
2018-06-23T03:15:28.556Z,99.90
2018-06-23T03:17:56.135Z,99.90
2018-06-23T03:20:23.648Z,99.90
2018-06-23T03:22:51.172Z,99.90
2018-06-23T03:25:18.724Z,99.90
2018-06-23T03:27:46.252Z,99.90
2018-06-23T03:30:13.795Z,99.90
2018-06-23T03:32:41.324Z,99.90
2018-06-23T03:35:08.842Z,99.90
2018-06-23T03:37:36.388Z,99.90
2018-06-23T03:40:03.920Z,99.90
2018-06-23T03:42:31.464Z,99.90
2018-06-23T03:44:59.768Z,99.90
2018-06-23T03:47:27.290Z,99.90
2018-06-23T03:49:54.850Z,99.90
2018-06-23T03:52:22.387Z,99.90
2018-06-23T03:54:49.901Z,99.90
2018-06-23T03:57:17.455Z,99.90
2018-06-23T03:59:44.977Z,99.90
2018-06-23T04:02:12.529Z,99.90
2018-06-23T04:04:40.056Z,99.90
2018-06-23T04:07:07.610Z,99.90
2018-06-23T04:09:35.132Z,99.90
2018-06-23T04:12:03.605Z,99.90
2018-06-23T04:14:31.178Z,99.90
2018-06-23T04:16:59.907Z,99.90
2018-06-23T04:19:27.459Z,99.90
2018-06-23T04:21:55.006Z,99.90
2018-06-23T04:24:22.550Z,99.90
2018-06-23T04:26:50.113Z,99.90
2018-06-23T04:29:17.666Z,99.90
2018-06-23T04:31:45.226Z,99.90
2018-06-23T04:34:12.753Z,99.90
2018-06-23T04:36:41.031Z,99.90
2018-06-23T04:39:08.580Z,99.90
2018-06-23T04:41:37.041Z,99.90
2018-06-23T04:44:04.555Z,99.90
2018-06-23T04:46:32.868Z,99.90
2018-06-23T04:49:00.389Z,99.90
2018-06-23T04:51:27.936Z,99.90
2018-06-23T04:53:57.223Z,99.90
2018-06-23T04:56:26.243Z,99.90
2018-06-23T04:58:53.794Z,99.90
2018-06-23T05:01:22.086Z,99.90
2018-06-23T05:03:49.612Z,99.90
2018-06-23T05:06:17.180Z,99.90
2018-06-23T05:08:44.704Z,99.90
2018-06-23T05:11:12.254Z,99.90
2018-06-23T05:13:39.784Z,99.90
2018-06-23T05:16:07.358Z,99.90
2018-06-23T05:18:34.912Z,99.90
2018-06-23T05:21:02.721Z,99.90
2018-06-23T05:23:31.642Z,99.90
2018-06-23T05:25:59.304Z,99.90
2018-06-23T05:28:26.799Z,99.90
2018-06-23T05:30:54.364Z,99.90
2018-06-23T05:33:21.924Z,99.90
2018-06-23T05:35:49.453Z,99.90
2018-06-23T05:38:17.018Z,99.90
2018-06-23T05:40:44.571Z,99.90
2018-06-23T05:43:12.092Z,99.90
2018-06-23T05:45:39.657Z,99.90
2018-06-23T05:48:07.184Z,99.90
2018-06-23T05:50:34.745Z,99.90
2018-06-23T05:53:02.270Z,99.90
2018-06-23T05:55:29.821Z,99.90
2018-06-23T05:57:57.396Z,99.90
2018-06-23T06:00:24.917Z,99.90
2018-06-23T06:02:52.448Z,99.90
2018-06-23T06:05:20.000Z,99.90
2018-06-23T06:07:47.529Z,99.90
2018-06-23T06:10:15.100Z,99.90
2018-06-23T06:12:42.649Z,99.80
2018-06-23T06:15:10.179Z,99.90
2018-06-23T06:17:37.730Z,99.40
2018-06-23T06:20:06.026Z,99.00
2018-06-23T06:22:33.597Z,99.00
2018-06-23T06:25:01.159Z,98.80
2018-06-23T06:27:29.660Z,98.60
2018-06-23T06:29:57.229Z,98.40
2018-06-23T06:32:24.762Z,98.30
2018-06-23T06:34:52.290Z,98.20
2018-06-23T06:37:19.843Z,98.20
2018-06-23T06:39:49.101Z,98.70
2018-06-23T06:42:18.145Z,98.40
2018-06-23T06:44:45.713Z,98.40
2018-06-23T06:47:13.253Z,98.50
2018-06-23T06:49:43.519Z,97.90
2018-06-23T06:52:11.076Z,97.90
2018-06-23T06:54:38.629Z,98.20
2018-06-23T06:57:06.727Z,98.00
2018-06-23T06:59:35.542Z,97.60
2018-06-23T07:02:03.098Z,97.60
2018-06-23T07:04:30.617Z,97.40
2018-06-23T07:06:58.195Z,96.90
2018-06-23T07:09:25.747Z,96.50
2018-06-23T07:11:54.241Z,96.30
2018-06-23T07:14:21.788Z,96.30
2018-06-23T07:16:49.343Z,95.70
2018-06-23T07:19:16.901Z,95.60
2018-06-23T07:21:44.427Z,95.60
2018-06-23T07:24:12.003Z,95.40
2018-06-23T07:26:39.536Z,95.20
2018-06-23T07:29:07.855Z,96.00
2018-06-23T07:31:35.392Z,96.00
2018-06-23T07:34:02.916Z,95.50
2018-06-23T07:36:30.497Z,95.10
2018-06-23T07:38:58.075Z,95.20
2018-06-23T07:41:25.648Z,95.30
2018-06-23T07:43:53.177Z,95.20
2018-06-23T07:46:20.762Z,95.10
2018-06-23T07:48:50.298Z,95.00
2018-06-23T07:51:18.604Z,94.90
2018-06-23T07:53:46.922Z,94.70
2018-06-23T07:56:14.516Z,94.70
2018-06-23T07:58:42.042Z,94.50
2018-06-23T08:01:09.604Z,94.50
2018-06-23T08:03:37.173Z,94.30
2018-06-23T08:06:04.714Z,93.30
2018-06-23T08:08:32.261Z,93.90
2018-06-23T08:10:59.796Z,92.60
2018-06-23T08:13:28.105Z,93.20
2018-06-23T08:15:55.955Z,93.10
2018-06-23T08:18:23.499Z,93.50
2018-06-23T08:20:51.812Z,92.80
2018-06-23T08:23:19.363Z,92.80
2018-06-23T08:25:47.440Z,92.60
2018-06-23T08:28:14.992Z,92.20
2018-06-23T08:30:42.524Z,91.70
2018-06-23T08:33:10.084Z,90.90
2018-06-23T08:35:37.637Z,90.90
2018-06-23T08:38:05.226Z,90.20
2018-06-23T08:40:32.784Z,90.70
2018-06-23T08:43:00.330Z,90.50
2018-06-23T08:45:27.881Z,90.60
2018-06-23T08:47:55.436Z,90.90
2018-06-23T08:50:23.737Z,90.70
2018-06-23T08:52:51.304Z,90.70
2018-06-23T08:55:20.209Z,90.00
2018-06-23T08:57:47.781Z,90.50
2018-06-23T09:00:15.331Z,90.60
2018-06-23T09:02:42.869Z,90.50
2018-06-23T09:05:10.538Z,90.40
2018-06-23T09:07:38.159Z,90.40
2018-06-23T09:10:06.724Z,90.00
2018-06-23T09:12:35.151Z,90.20
2018-06-23T09:15:02.729Z,89.90
2018-06-23T09:17:30.281Z,89.40
2018-06-23T09:19:58.805Z,88.80
2018-06-23T09:22:26.336Z,89.00
2018-06-23T09:24:53.884Z,89.00
2018-06-23T09:27:21.416Z,89.80
2018-06-23T09:29:48.968Z,89.80
2018-06-23T09:32:16.520Z,90.30
2018-06-23T09:34:44.408Z,89.30
2018-06-23T09:37:12.915Z,88.00
2018-06-23T09:39:40.468Z,89.90
2018-06-23T09:42:07.993Z,88.00
2018-06-23T09:44:35.566Z,88.20
2018-06-23T09:47:03.140Z,89.80
2018-06-23T09:49:32.655Z,90.30
2018-06-23T09:52:01.147Z,89.10
2018-06-23T09:54:28.677Z,87.70
2018-06-23T09:56:56.236Z,88.00
2018-06-23T09:59:23.757Z,89.40
2018-06-23T10:01:51.379Z,89.50
2018-06-23T10:04:19.200Z,87.50
2018-06-23T10:06:46.745Z,86.60
2018-06-23T10:09:14.305Z,87.20
2018-06-23T10:11:41.836Z,87.20
2018-06-23T10:14:09.388Z,89.00
2018-06-23T10:16:36.928Z,87.50
2018-06-23T10:19:04.491Z,87.30
2018-06-23T10:21:33.033Z,88.90
2018-06-23T10:24:01.333Z,86.30
2018-06-23T10:26:28.894Z,86.40
2018-06-23T10:28:56.437Z,86.10
2018-06-23T10:31:24.988Z,85.80
2018-06-23T10:33:53.310Z,83.30
2018-06-23T10:36:20.862Z,83.30
2018-06-23T10:38:48.541Z,85.30
2018-06-23T10:41:16.019Z,85.00
2018-06-23T10:43:43.568Z,84.70
2018-06-23T10:46:11.121Z,85.70
2018-06-23T10:48:38.675Z,87.30
2018-06-23T10:51:06.209Z,87.00
2018-06-23T10:53:33.764Z,84.30
2018-06-23T10:56:01.316Z,85.10
2018-06-23T10:58:28.890Z,86.20
2018-06-23T11:00:56.441Z,86.50
2018-06-23T11:03:24.009Z,87.20
2018-06-23T11:05:51.705Z,86.90
2018-06-23T11:08:19.271Z,86.20
2018-06-23T11:10:46.875Z,85.60
2018-06-23T11:13:14.466Z,83.20
2018-06-23T11:15:42.028Z,83.50
2018-06-23T11:18:09.557Z,83.50
2018-06-23T11:20:37.113Z,82.80
2018-06-23T11:23:04.692Z,83.10
2018-06-23T11:25:32.259Z,81.90
2018-06-23T11:27:59.824Z,81.60
2018-06-23T11:30:27.357Z,80.90
2018-06-23T11:32:54.912Z,80.60
2018-06-23T11:35:23.205Z,82.00
2018-06-23T11:37:50.736Z,82.00
2018-06-23T11:40:20.024Z,79.90
2018-06-23T11:42:47.548Z,79.90
2018-06-23T11:45:15.108Z,81.40
2018-06-23T11:47:42.665Z,80.10
2018-06-23T11:50:11.205Z,81.50
2018-06-23T11:52:38.737Z,80.30
2018-06-23T11:55:08.256Z,78.30
2018-06-23T11:57:36.553Z,78.10
2018-06-23T12:00:04.132Z,78.10
2018-06-23T12:02:31.669Z,78.30
2018-06-23T12:04:59.196Z,79.00
2018-06-23T12:07:27.525Z,78.80
2018-06-23T12:09:55.052Z,78.80
2018-06-23T12:12:22.604Z,76.80
2018-06-23T12:14:50.135Z,76.40
2018-06-23T12:17:17.696Z,77.90
2018-06-23T12:19:45.240Z,77.50
2018-06-23T12:22:12.788Z,76.30
2018-06-23T12:24:40.342Z,77.70
2018-06-23T12:27:07.909Z,76.80
2018-06-23T12:29:35.461Z,74.90
2018-06-23T12:32:03.001Z,76.20
2018-06-23T12:34:30.560Z,75.40
2018-06-23T12:36:58.105Z,76.40
2018-06-23T12:39:25.680Z,76.50
2018-06-23T12:41:53.235Z,74.50
2018-06-23T12:44:20.830Z,75.10
2018-06-23T12:46:48.357Z,75.40
2018-06-23T12:49:15.907Z,74.70
2018-06-23T12:51:43.473Z,73.10
2018-06-23T12:54:13.621Z,74.70
2018-06-23T12:56:43.080Z,73.80
2018-06-23T12:59:10.668Z,72.80
2018-06-23T13:01:38.222Z,74.00
2018-06-23T13:04:05.753Z,71.20
2018-06-23T13:06:35.073Z,71.50
2018-06-23T13:09:02.633Z,71.50
2018-06-23T13:11:31.138Z,71.90
2018-06-23T13:13:58.704Z,70.60
2018-06-23T13:16:26.228Z,68.20
2018-06-23T13:18:53.829Z,69.10
2018-06-23T13:21:21.359Z,69.00
2018-06-23T13:23:48.924Z,66.30
2018-06-23T13:26:16.469Z,67.70
2018-06-23T13:28:44.049Z,66.20
2018-06-23T13:31:11.623Z,67.20
2018-06-23T13:33:39.167Z,68.40
2018-06-23T13:36:06.732Z,66.80
2018-06-23T13:38:34.256Z,68.50
2018-06-23T13:41:01.789Z,68.30
2018-06-23T13:43:29.352Z,65.70
2018-06-23T13:45:57.680Z,65.80
2018-06-23T13:48:25.217Z,65.80
2018-06-23T13:50:52.793Z,65.20
2018-06-23T13:53:20.319Z,65.30
2018-06-23T13:55:48.661Z,61.40
2018-06-23T13:58:16.224Z,61.40
2018-06-23T14:00:44.528Z,63.20
2018-06-23T14:03:12.832Z,64.00
2018-06-23T14:05:40.393Z,63.90
2018-06-23T14:08:08.865Z,65.10
2018-06-23T14:10:36.407Z,63.50
2018-06-23T14:13:03.967Z,65.90
2018-06-23T14:15:31.492Z,61.70
2018-06-23T14:17:59.020Z,61.50
2018-06-23T14:20:26.598Z,62.50
2018-06-23T14:22:54.125Z,59.50
2018-06-23T14:25:21.701Z,59.50
2018-06-23T14:27:50.195Z,59.30
2018-06-23T14:30:17.724Z,58.90
2018-06-23T14:32:45.284Z,56.70
2018-06-23T14:35:12.839Z,54.30
2018-06-23T14:37:40.370Z,54.50
2018-06-23T14:40:08.748Z,53.30
2018-06-23T14:42:38.253Z,52.90
2018-06-23T14:45:06.555Z,48.90
2018-06-23T14:47:34.117Z,48.30
2018-06-23T14:50:03.192Z,49.20
2018-06-23T14:52:32.047Z,48.50
2018-06-23T14:54:59.609Z,49.00
2018-06-23T14:57:27.197Z,50.60
2018-06-23T14:59:55.497Z,51.10
2018-06-23T15:02:25.002Z,51.10
2018-06-23T15:04:52.547Z,51.00
2018-06-23T15:07:20.104Z,50.60
2018-06-23T15:13:13.400Z,49.30
2018-06-23T15:15:41.861Z,46.80
2018-06-23T15:18:10.226Z,47.40
2018-06-23T15:20:37.747Z,47.40
2018-06-23T15:31:46.126Z,41.80
2018-06-23T15:34:13.691Z,41.80
2018-06-23T15:36:41.413Z,40.40
2018-06-23T15:39:08.948Z,40.10
2018-06-23T15:41:37.269Z,38.30
2018-06-23T15:44:04.795Z,38.20
2018-06-23T15:46:32.347Z,38.30
2018-06-23T15:49:00.692Z,38.20
2018-06-23T15:51:28.216Z,38.20
2018-06-23T15:53:55.744Z,39.60
2018-06-23T15:56:23.292Z,37.90
2018-06-23T15:58:50.820Z,37.50
2018-06-23T16:01:18.374Z,36.40
2018-06-23T16:03:45.883Z,36.10
2018-06-23T16:06:14.171Z,37.30
2018-06-23T16:08:41.852Z,36.60
2018-06-23T16:11:09.401Z,37.70
2018-06-23T16:13:36.949Z,36.70
2018-06-23T16:16:04.477Z,35.80
2018-06-23T16:18:32.032Z,35.80
2018-06-23T16:20:59.599Z,36.60
2018-06-23T16:23:27.435Z,36.20
2018-06-23T16:25:54.975Z,36.70
2018-06-23T16:28:22.503Z,35.70
2018-06-23T16:30:50.828Z,35.70
2018-06-23T16:33:18.344Z,35.70
2018-06-23T16:35:45.921Z,35.60
2018-06-23T16:38:13.892Z,35.50
2018-06-23T16:40:41.450Z,35.70
2018-06-23T16:43:09.008Z,35.40
2018-06-23T16:45:36.753Z,35.90
2018-06-23T16:48:04.312Z,35.90
2018-06-23T16:50:31.840Z,37.30
2018-06-23T16:52:59.389Z,36.60
2018-06-23T16:55:27.908Z,36.90
2018-06-23T16:57:55.470Z,38.10
2018-06-23T17:00:23.979Z,39.30
2018-06-23T17:02:51.531Z,39.00
2018-06-23T17:05:19.071Z,38.80
2018-06-23T17:07:46.621Z,39.30
2018-06-23T17:10:15.860Z,41.40
2018-06-23T17:12:43.380Z,41.30
2018-06-23T17:15:11.746Z,45.60
2018-06-23T17:17:39.285Z,46.20
2018-06-23T17:20:06.845Z,47.40
2018-06-23T17:22:34.377Z,48.50
2018-06-23T17:25:01.913Z,50.30
2018-06-23T17:27:29.484Z,50.70
2018-06-23T17:29:57.018Z,50.90
2018-06-23T17:32:25.341Z,52.80
2018-06-23T17:34:52.892Z,52.90
2018-06-23T17:37:20.446Z,53.60
2018-06-23T17:39:48.011Z,54.30
2018-06-23T17:42:15.544Z,55.50
2018-06-23T17:44:43.074Z,56.10
2018-06-23T17:47:11.404Z,57.60
2018-06-23T17:49:39.607Z,57.50
2018-06-23T17:52:07.176Z,57.40
2018-06-23T17:54:34.700Z,57.80
2018-06-23T17:57:02.269Z,57.90
2018-06-23T17:59:29.832Z,58.40
2018-06-23T18:01:57.356Z,59.00
2018-06-23T18:04:24.888Z,59.10
2018-06-23T18:06:54.254Z,59.80
2018-06-23T18:09:21.788Z,59.70
2018-06-23T18:11:49.347Z,60.50
2018-06-23T18:14:16.877Z,60.50
2018-06-23T18:16:44.408Z,60.70
2018-06-23T18:19:12.731Z,61.60
2018-06-23T18:21:40.256Z,61.60
2018-06-23T18:24:08.560Z,62.30
2018-06-23T18:26:36.119Z,62.20
2018-06-23T18:29:03.640Z,62.10
2018-06-23T18:31:31.985Z,63.20
2018-06-23T18:33:59.530Z,62.80
2018-06-23T18:36:27.052Z,63.10
2018-06-23T18:38:55.368Z,63.80
2018-06-23T18:41:22.893Z,63.70
2018-06-23T18:43:50.418Z,64.40
2018-06-23T18:46:17.972Z,64.60
2018-06-23T18:48:45.504Z,65.40
2018-06-23T18:51:13.060Z,66.00
2018-06-23T18:53:40.590Z,66.10
2018-06-23T18:56:08.145Z,65.90
2018-06-23T18:58:36.472Z,67.20
2018-06-23T19:01:04.002Z,67.10
2018-06-23T19:03:33.497Z,67.80
2018-06-23T19:06:01.177Z,68.10
2018-06-23T19:08:28.718Z,68.20
2018-06-23T19:10:56.292Z,68.70
2018-06-23T19:13:23.825Z,68.90
2018-06-23T19:15:52.348Z,69.40
2018-06-23T19:18:19.868Z,68.20
2018-06-23T19:20:47.400Z,69.70
2018-06-23T19:23:14.956Z,71.90
2018-06-23T19:25:42.480Z,73.50
2018-06-23T19:28:10.053Z,74.60
2018-06-23T19:30:39.618Z,75.80
2018-06-23T19:33:07.175Z,76.70
2018-06-23T19:35:34.779Z,77.90
2018-06-23T19:38:02.342Z,79.00
2018-06-23T19:40:29.898Z,80.00
2018-06-23T19:42:57.451Z,81.00
2018-06-23T19:45:24.968Z,82.10
2018-06-23T19:47:52.494Z,83.50
2018-06-23T19:50:21.985Z,83.90
2018-06-23T19:52:49.508Z,84.50
2018-06-23T19:55:17.068Z,85.30
2018-06-23T19:57:44.619Z,85.80
2018-06-23T20:00:12.141Z,86.70
2018-06-23T20:02:42.425Z,88.30
2018-06-23T20:05:09.980Z,87.60
2018-06-23T20:07:37.656Z,87.90
2018-06-23T20:10:05.188Z,88.60
2018-06-23T20:12:32.764Z,89.40
2018-06-23T20:15:00.303Z,90.10
2018-06-23T20:17:29.850Z,90.20
2018-06-23T20:19:57.383Z,90.30
2018-06-23T20:22:24.908Z,90.60
2018-06-23T20:24:53.224Z,91.00
2018-06-23T20:27:20.807Z,90.90
2018-06-23T20:29:49.182Z,91.40
2018-06-23T20:32:16.725Z,91.30
2018-06-23T20:34:44.279Z,91.40
2018-06-23T20:37:11.830Z,91.60
2018-06-23T20:39:39.378Z,91.30
2018-06-23T20:42:06.908Z,91.40
2018-06-23T20:44:35.202Z,91.60
2018-06-23T20:47:02.796Z,91.60
2018-06-23T20:49:30.462Z,91.90
2018-06-23T20:51:58.029Z,91.90
2018-06-23T20:54:25.593Z,92.00
2018-06-23T20:56:53.130Z,92.20
2018-06-23T20:59:20.694Z,92.10
2018-06-23T21:01:48.221Z,92.30
2018-06-23T21:04:15.751Z,92.40
2018-06-23T21:06:43.306Z,92.30
2018-06-23T21:09:10.832Z,92.50
2018-06-23T21:14:19.692Z,92.80
2018-06-23T21:16:47.225Z,93.10
2018-06-23T21:19:14.848Z,93.40
2018-06-23T21:21:42.433Z,93.70
2018-06-23T21:24:09.992Z,93.90
2018-06-23T21:26:37.525Z,93.70
2018-06-23T21:29:05.083Z,93.50
2018-06-23T21:31:32.632Z,93.30
2018-06-23T21:34:01.121Z,93.50
2018-06-23T21:36:29.444Z,94.20
2018-06-23T21:38:56.972Z,94.20
2018-06-23T21:41:24.547Z,94.40
2018-06-23T21:43:52.203Z,94.60
2018-06-23T21:46:19.757Z,94.30
2018-06-23T21:48:47.294Z,94.60
2018-06-23T21:51:15.584Z,94.50
2018-06-23T21:53:43.154Z,94.50
2018-06-23T21:56:10.710Z,94.70
2018-06-23T21:58:38.343Z,94.90
2018-06-23T22:01:05.935Z,95.10
2018-06-23T22:03:33.803Z,95.50
2018-06-23T22:06:01.360Z,95.20
2018-06-23T22:08:28.918Z,95.20
2018-06-23T22:10:56.496Z,95.00
2018-06-23T22:13:24.160Z,94.90
2018-06-23T22:15:51.719Z,94.90
2018-06-23T22:18:20.207Z,95.30
2018-06-23T22:20:48.755Z,95.40
2018-06-23T22:23:16.276Z,95.70
2018-06-23T22:25:43.844Z,95.90
2018-06-23T22:28:11.392Z,96.20
2018-06-23T22:30:38.940Z,96.30
2018-06-23T22:33:06.460Z,96.20
2018-06-23T22:35:34.017Z,96.60
2018-06-23T22:38:02.535Z,96.70
2018-06-23T22:40:30.077Z,96.90
2018-06-23T22:42:57.605Z,97.00
2018-06-23T22:45:25.179Z,96.90
2018-06-23T22:47:52.704Z,97.20
2018-06-23T22:50:20.230Z,97.50
2018-06-23T22:52:47.791Z,97.60
2018-06-23T22:55:15.314Z,97.80
2018-06-23T22:57:42.894Z,97.90
2018-06-23T23:00:10.427Z,97.80
2018-06-23T23:02:37.987Z,98.10
2018-06-23T23:05:05.518Z,98.50
2018-06-23T23:07:33.078Z,98.80
2018-06-23T23:10:00.613Z,99.30
2018-06-23T23:12:29.674Z,99.90
2018-06-23T23:14:58.174Z,99.90
2018-06-23T23:17:25.724Z,99.90
2018-06-23T23:19:53.255Z,99.90
2018-06-23T23:22:20.793Z,99.80
2018-06-23T23:24:48.350Z,99.90
2018-06-23T23:27:15.880Z,99.90
2018-06-23T23:29:43.444Z,99.90
2018-06-23T23:32:10.965Z,99.90
2018-06-23T23:34:38.495Z,99.90
2018-06-23T23:37:06.055Z,99.80
2018-06-23T23:39:33.581Z,99.90
2018-06-23T23:42:01.136Z,99.90
2018-06-23T23:44:28.684Z,99.90
2018-06-23T23:46:56.972Z,99.90
2018-06-23T23:49:24.495Z,99.90
2018-06-23T23:51:52.051Z,99.90
2018-06-23T23:54:19.583Z,99.90
2018-06-23T23:56:47.144Z,99.90
2018-06-23T23:59:14.693Z,99.90
